createdAt,value
2023-04-23T00:02:17.502Z,100069.80
2023-04-23T00:04:53.143Z,100068.75
2023-04-23T00:07:25.892Z,100072.49
2023-04-23T00:09:57.764Z,100073.81
2023-04-23T00:12:30.752Z,100074.46
2023-04-23T00:15:02.773Z,100077.00
2023-04-23T00:17:34.760Z,100074.42
2023-04-23T00:20:07.328Z,100078.14
2023-04-23T00:22:39.035Z,100081.54
2023-04-23T00:25:11.561Z,100083.89
2023-04-23T00:27:43.495Z,100081.84
2023-04-23T00:30:16.889Z,100081.50
2023-04-23T00:32:48.773Z,100087.93
2023-04-23T00:35:20.985Z,100084.37
2023-04-23T00:37:52.670Z,100093.03
2023-04-23T00:40:25.233Z,100086.69
2023-04-23T00:42:58.332Z,100082.61
2023-04-23T00:45:30.183Z,100084.12
2023-04-23T00:48:02.634Z,100089.72
2023-04-23T00:50:34.331Z,100089.03
2023-04-23T00:53:06.076Z,100087.14
2023-04-23T00:55:37.702Z,100087.82
2023-04-23T00:58:09.330Z,100088.80
2023-04-23T01:01:03.922Z,100092.89
2023-04-23T01:03:36.646Z,100089.82
2023-04-23T01:06:08.988Z,100087.78
2023-04-23T01:08:41.067Z,100087.78
2023-04-23T01:11:14.740Z,100090.12
2023-04-23T01:13:46.312Z,100089.78
2023-04-23T01:16:17.948Z,100085.36
2023-04-23T01:18:49.592Z,100087.70
2023-04-23T01:21:21.211Z,100079.20
2023-04-23T01:23:52.934Z,100086.64
2023-04-23T01:26:25.658Z,100086.16
2023-04-23T01:28:57.414Z,100090.23
2023-04-23T01:31:29.451Z,100088.16
2023-04-23T01:34:01.213Z,100084.75
2023-04-23T01:36:33.411Z,100089.32
2023-04-23T01:39:05.778Z,100092.72
2023-04-23T01:41:38.034Z,100094.08
2023-04-23T01:44:09.665Z,100096.42
2023-04-23T01:46:42.023Z,100094.00
2023-04-23T01:49:13.652Z,100099.10
2023-04-23T01:51:45.706Z,100096.88
2023-04-23T01:54:17.306Z,100095.89
2023-04-23T01:56:48.944Z,100104.39
2023-04-23T01:59:20.892Z,100099.45
2023-04-23T02:01:52.541Z,100100.81
2023-04-23T02:04:24.332Z,100103.91
2023-04-23T02:06:56.278Z,100103.91
2023-04-23T02:09:28.249Z,100100.47
2023-04-23T02:11:59.930Z,100105.56
2023-04-23T02:14:31.825Z,100105.34
2023-04-23T02:17:03.964Z,100108.20
2023-04-23T02:19:35.886Z,100103.44
2023-04-23T02:22:07.656Z,100106.84
2023-04-23T02:24:39.665Z,100107.52
2023-04-23T02:27:12.064Z,100107.82
2023-04-23T02:29:43.736Z,100119.34
2023-04-23T02:32:15.973Z,100113.21
2023-04-23T02:34:47.566Z,100110.64
2023-04-23T02:37:19.378Z,100117.94
2023-04-23T02:39:51.286Z,100116.23
2023-04-23T02:42:23.060Z,100121.30
2023-04-23T02:44:54.704Z,100118.57
2023-04-23T02:47:26.362Z,100121.30
2023-04-23T02:49:58.358Z,100127.11
2023-04-23T02:52:30.182Z,100119.44
2023-04-23T02:55:05.370Z,100126.09
2023-04-23T02:57:37.577Z,100130.81
2023-04-23T03:00:11.709Z,100125.03
2023-04-23T03:02:45.868Z,100126.91
2023-04-23T03:05:18.088Z,100123.33
2023-04-23T03:07:50.054Z,100127.06
2023-04-23T03:10:22.064Z,100129.78
2023-04-23T03:12:53.776Z,100128.42
2023-04-23T03:15:27.435Z,100131.14
2023-04-23T03:17:59.343Z,100132.84
2023-04-23T03:20:31.253Z,100132.17
2023-04-23T03:23:03.053Z,100138.19
2023-04-23T03:25:35.202Z,100136.34
2023-04-23T03:28:07.180Z,100151.69
2023-04-23T03:30:38.926Z,100143.53
2023-04-23T03:33:10.642Z,100146.63
2023-04-23T03:35:42.441Z,100149.02
2023-04-23T03:38:15.792Z,100156.89
2023-04-23T03:40:47.864Z,100154.17
2023-04-23T03:43:20.802Z,100158.10
2023-04-23T03:46:09.480Z,100153.88
2023-04-23T03:48:43.339Z,100159.55
2023-04-23T03:51:16.698Z,100157.02
2023-04-23T03:53:50.901Z,100157.70
2023-04-23T03:56:36.214Z,100161.00
2023-04-23T03:59:22.823Z,100166.49
2023-04-23T04:01:56.325Z,100161.62
2023-04-23T04:04:29.876Z,100168.12
2023-04-23T04:07:01.963Z,100174.97
2023-04-23T04:09:33.862Z,100176.94
2023-04-23T04:12:07.229Z,100178.84
2023-04-23T04:14:38.987Z,100181.61
2023-04-23T04:17:12.531Z,100191.22
2023-04-23T04:19:44.160Z,100187.81
2023-04-23T04:22:16.289Z,100183.28
2023-04-23T04:24:48.354Z,100184.69
2023-04-23T04:27:19.971Z,100184.08
2023-04-23T04:29:51.975Z,100185.70
2023-04-23T04:32:23.735Z,100190.37
2023-04-23T04:34:55.349Z,100190.63
2023-04-23T04:37:28.221Z,100197.67
2023-04-23T04:40:01.547Z,100198.80
2023-04-23T04:42:33.428Z,100202.39
2023-04-23T04:45:06.192Z,100207.61
2023-04-23T04:47:38.549Z,100206.95
2023-04-23T04:50:11.184Z,100204.98
2023-04-23T04:52:43.225Z,100205.05
2023-04-23T04:55:14.935Z,100209.51
2023-04-23T04:57:46.525Z,100215.70
2023-04-23T05:00:26.840Z,100208.77
2023-04-23T05:02:59.134Z,100213.75
2023-04-23T05:05:33.933Z,100209.84
2023-04-23T05:08:05.879Z,100212.97
2023-04-23T05:10:37.760Z,100210.27
2023-04-23T05:13:09.355Z,100221.62
2023-04-23T05:15:41.185Z,100221.80
2023-04-23T05:18:12.924Z,100230.19
2023-04-23T05:20:44.570Z,100226.66
2023-04-23T05:23:16.640Z,100233.53
2023-04-23T05:25:48.552Z,100232.90
2023-04-23T05:28:20.258Z,100239.80
2023-04-23T05:30:52.036Z,100238.48
2023-04-23T05:33:23.688Z,100236.80
2023-04-23T05:35:55.523Z,100243.30
2023-04-23T05:38:27.623Z,100244.17
2023-04-23T05:40:59.523Z,100251.86
2023-04-23T05:43:31.033Z,100251.23
2023-04-23T05:46:04.866Z,100244.16
2023-04-23T05:48:36.865Z,100248.66
2023-04-23T05:51:08.729Z,100249.34
2023-04-23T05:53:40.375Z,100246.84
2023-04-23T05:56:12.635Z,100251.20
2023-04-23T05:58:44.364Z,100253.14
2023-04-23T06:01:16.435Z,100252.38
2023-04-23T06:03:48.420Z,100252.59
2023-04-23T06:06:20.343Z,100258.63
2023-04-23T06:08:52.517Z,100253.20
2023-04-23T06:11:25.218Z,100254.75
2023-04-23T06:13:57.060Z,100259.02
2023-04-23T06:16:28.812Z,100264.14
2023-04-23T06:19:00.669Z,100265.86
2023-04-23T06:21:32.620Z,100262.11
2023-04-23T06:24:04.183Z,100267.59
2023-04-23T06:26:35.738Z,100269.28
2023-04-23T06:29:09.348Z,100274.37
2023-04-23T06:31:42.787Z,100274.02
2023-04-23T06:34:14.621Z,100274.02
2023-04-23T06:36:46.796Z,100275.72
2023-04-23T06:39:18.487Z,100270.25
2023-04-23T06:41:50.439Z,100270.94
2023-04-23T06:44:27.022Z,100276.41
2023-04-23T06:46:58.554Z,100277.81
2023-04-23T06:49:30.798Z,100272.00
2023-04-23T06:52:02.332Z,100273.37
2023-04-23T06:54:34.022Z,100274.77
2023-04-23T06:57:05.911Z,100276.81
2023-04-23T06:59:38.067Z,100275.12
2023-04-23T07:02:09.740Z,100275.11
2023-04-23T07:04:42.093Z,100277.81
2023-04-23T07:07:14.428Z,100279.12
2023-04-23T07:09:46.495Z,100271.38
2023-04-23T07:12:18.179Z,100276.58
2023-04-23T07:14:50.025Z,100275.78
2023-04-23T07:17:21.944Z,100278.98
2023-04-23T07:19:53.778Z,100279.83
2023-04-23T07:22:27.377Z,100271.59
2023-04-23T07:25:00.198Z,100270.94
2023-04-23T07:27:33.403Z,100277.37
2023-04-23T07:30:05.816Z,100277.89
2023-04-23T07:32:38.037Z,100282.50
2023-04-23T07:35:10.833Z,100278.95
2023-04-23T07:37:43.070Z,100277.55
2023-04-23T07:40:14.908Z,100278.78
2023-04-23T07:42:46.695Z,100280.75
2023-04-23T07:45:18.728Z,100286.62
2023-04-23T07:47:51.448Z,100278.54
2023-04-23T07:50:23.199Z,100281.39
2023-04-23T07:52:54.882Z,100274.19
2023-04-23T07:55:26.500Z,100272.76
2023-04-23T07:57:58.136Z,100270.23
2023-04-23T08:00:29.834Z,100269.80
2023-04-23T08:03:01.623Z,100266.02
2023-04-23T08:05:33.734Z,100265.70
2023-04-23T08:08:05.603Z,100264.83
2023-04-23T08:10:37.177Z,100265.62
2023-04-23T08:13:08.797Z,100263.02
2023-04-23T08:15:40.526Z,100263.59
2023-04-23T08:18:12.168Z,100261.80
2023-04-23T08:20:43.868Z,100257.63
2023-04-23T08:23:15.451Z,100248.85
2023-04-23T08:25:47.173Z,100254.23
2023-04-23T08:28:19.936Z,100254.55
2023-04-23T08:30:51.623Z,100251.62
2023-04-23T08:33:23.494Z,100257.66
2023-04-23T08:35:54.997Z,100249.92
2023-04-23T08:38:27.112Z,100248.02
2023-04-23T08:40:59.332Z,100244.70
2023-04-23T08:43:34.923Z,100248.23
2023-04-23T08:46:06.505Z,100240.08
2023-04-23T08:48:38.257Z,100238.05
2023-04-23T08:51:11.542Z,100243.36
2023-04-23T08:53:44.337Z,100245.03
2023-04-23T08:56:16.468Z,100249.03
2023-04-23T08:58:48.039Z,100253.69
2023-04-23T09:01:19.864Z,100242.48
2023-04-23T09:03:51.692Z,100239.53
2023-04-23T09:06:23.504Z,100239.99
2023-04-23T09:08:55.059Z,100246.19
2023-04-23T09:11:27.294Z,100239.80
2023-04-23T09:13:58.893Z,100238.94
2023-04-23T09:16:30.601Z,100242.84
2023-04-23T09:19:02.372Z,100240.39
2023-04-23T09:21:34.483Z,100237.90
2023-04-23T09:24:06.648Z,100235.73
2023-04-23T09:26:40.051Z,100238.70
2023-04-23T09:29:17.576Z,100240.20
2023-04-23T09:31:50.447Z,100242.77
2023-04-23T09:34:23.402Z,100237.92
2023-04-23T09:36:54.914Z,100236.94
2023-04-23T09:39:26.734Z,100236.74
2023-04-23T09:41:58.594Z,100237.65
2023-04-23T09:44:32.796Z,100236.89
2023-04-23T09:47:12.278Z,100230.25
2023-04-23T09:49:50.449Z,100226.87
2023-04-23T09:52:23.028Z,100229.36
2023-04-23T09:54:54.743Z,100228.74
2023-04-23T09:57:26.921Z,100223.59
2023-04-23T10:00:07.214Z,100222.73
2023-04-23T10:02:34.029Z,100221.45
2023-04-23T10:05:24.209Z,100223.58
2023-04-23T10:07:50.980Z,100221.95
2023-04-23T10:10:22.743Z,100226.14
2023-04-23T10:12:57.878Z,100228.62
2023-04-23T10:15:29.553Z,100234.69
2023-04-23T10:18:01.383Z,100227.36
2023-04-23T10:20:33.141Z,100228.59
2023-04-23T10:23:05.036Z,100226.23
2023-04-23T10:25:37.820Z,100225.20
2023-04-23T10:28:09.542Z,100218.16
2023-04-23T10:30:41.842Z,100220.20
2023-04-23T10:33:26.497Z,100217.33
2023-04-23T10:35:48.762Z,100216.42
2023-04-23T10:38:20.655Z,100223.31
2023-04-23T10:40:52.355Z,100216.00
2023-04-23T10:43:23.987Z,100219.42
2023-04-23T10:45:55.973Z,100217.96
2023-04-23T10:48:29.492Z,100219.53
2023-04-23T10:53:44.166Z,100210.59
2023-04-23T10:56:15.715Z,100206.54
2023-04-23T10:58:51.890Z,100203.48
2023-04-23T11:01:25.779Z,100204.04
2023-04-23T11:03:57.622Z,100202.09
2023-04-23T11:06:52.138Z,100203.30
2023-04-23T11:09:44.719Z,100201.44
2023-04-23T11:12:31.291Z,100203.02
2023-04-23T11:15:13.965Z,100206.14
2023-04-23T11:17:49.059Z,100204.02
2023-04-23T11:20:21.636Z,100209.80
2023-04-23T11:22:54.046Z,100203.20
2023-04-23T11:25:27.023Z,100197.98
2023-04-23T11:27:59.127Z,100199.47
2023-04-23T11:30:31.208Z,100198.50
2023-04-23T11:33:02.905Z,100195.22
2023-04-23T11:35:36.440Z,100189.55
2023-04-23T11:38:10.636Z,100187.55
2023-04-23T11:40:43.006Z,100187.41
2023-04-23T11:43:17.874Z,100184.38
2023-04-23T11:45:49.820Z,100190.02
2023-04-23T11:48:21.724Z,100189.47
2023-04-23T11:50:53.503Z,100184.03
2023-04-23T11:53:27.034Z,100187.86
2023-04-23T11:55:59.949Z,100183.69
2023-04-23T11:58:31.979Z,100184.73
2023-04-23T12:01:04.157Z,100189.34
2023-04-23T12:03:37.212Z,100180.29
2023-04-23T12:06:08.984Z,100177.28
2023-04-23T12:08:43.287Z,100182.21
2023-04-23T12:11:15.364Z,100175.61
2023-04-23T12:13:46.939Z,100173.81
2023-04-23T12:16:18.577Z,100173.05
2023-04-23T12:18:53.366Z,100172.23
2023-04-23T12:21:26.313Z,100171.72
2023-04-23T12:23:58.632Z,100173.62
2023-04-23T12:26:31.618Z,100175.61
2023-04-23T12:29:03.510Z,100176.02
2023-04-23T12:31:37.727Z,100178.66
2023-04-23T12:34:10.385Z,100170.45
2023-04-23T12:36:48.678Z,100167.84
2023-04-23T12:39:26.012Z,100167.38
2023-04-23T12:42:00.674Z,100162.14
2023-04-23T12:44:37.700Z,100159.47
2023-04-23T12:47:11.159Z,100161.28
2023-04-23T12:49:44.216Z,100151.70
2023-04-23T12:52:16.003Z,100153.20
2023-04-23T12:54:49.231Z,100156.41
2023-04-23T12:57:22.472Z,100156.92
2023-04-23T12:59:55.287Z,100159.17
2023-04-23T13:02:27.373Z,100155.16
2023-04-23T13:05:01.440Z,100154.95
2023-04-23T13:07:33.702Z,100147.17
2023-04-23T13:10:05.919Z,100146.45
2023-04-23T13:15:10.023Z,100147.70
2023-04-23T13:17:42.527Z,100141.73
2023-04-23T13:20:14.210Z,100146.11
2023-04-23T13:22:46.227Z,100138.14
2023-04-23T13:25:18.003Z,100137.28
2023-04-23T13:27:49.615Z,100131.31
2023-04-23T13:30:21.188Z,100139.29
2023-04-23T13:32:53.576Z,100131.70
2023-04-23T13:35:25.390Z,100140.22
2023-04-23T13:37:57.153Z,100132.48
2023-04-23T13:40:28.745Z,100129.58
2023-04-23T13:43:00.523Z,100131.94
2023-04-23T13:45:32.353Z,100130.75
2023-04-23T13:48:05.234Z,100128.31
2023-04-23T13:50:37.113Z,100123.20
2023-04-23T13:53:10.520Z,100126.08
2023-04-23T13:55:42.282Z,100123.73
2023-04-23T13:58:14.302Z,100122.53
2023-04-23T14:00:45.881Z,100122.82
2023-04-23T14:03:17.757Z,100124.99
2023-04-23T14:05:49.526Z,100124.53
2023-04-23T14:08:21.223Z,100123.22
2023-04-23T14:10:52.908Z,100123.32
2023-04-23T14:13:24.550Z,100122.45
2023-04-23T14:15:56.309Z,100121.38
2023-04-23T14:18:28.057Z,100119.88
2023-04-23T14:20:59.653Z,100116.56
2023-04-23T14:24:12.069Z,100113.74
2023-04-23T14:26:49.265Z,100113.98
2023-04-23T14:29:27.499Z,100115.86
2023-04-23T14:31:59.202Z,100112.73
2023-04-23T14:34:30.863Z,100106.27
2023-04-23T14:37:02.737Z,100101.50
2023-04-23T14:39:35.369Z,100104.63
2023-04-23T14:42:07.092Z,100110.27
2023-04-23T14:44:39.078Z,100103.94
2023-04-23T14:47:11.991Z,100105.52
2023-04-23T14:49:45.001Z,100107.49
2023-04-23T14:52:16.866Z,100106.75
2023-04-23T14:54:48.476Z,100110.28
2023-04-23T14:57:20.065Z,100111.73
2023-04-23T14:59:52.117Z,100107.68
2023-04-23T15:02:23.849Z,100106.77
2023-04-23T15:04:55.458Z,100104.80
2023-04-23T15:07:27.240Z,100103.56
2023-04-23T15:09:58.957Z,100101.66
2023-04-23T15:12:55.533Z,100094.17
2023-04-23T15:15:44.148Z,100099.01
2023-04-23T15:18:14.360Z,100102.88
2023-04-23T15:20:46.120Z,100099.34
2023-04-23T15:23:19.430Z,100099.05
2023-04-23T15:25:53.036Z,100096.36
2023-04-23T15:28:25.451Z,100098.64
2023-04-23T15:30:57.030Z,100099.75
2023-04-23T15:33:29.754Z,100100.48
2023-04-23T15:36:01.269Z,100097.51
2023-04-23T15:38:33.283Z,100087.27
2023-04-23T15:41:05.010Z,100091.97
2023-04-23T15:43:37.611Z,100092.89
2023-04-23T15:46:09.405Z,100094.97
2023-04-23T15:48:41.148Z,100087.97
2023-04-23T15:51:13.679Z,100088.02
2023-04-23T15:53:45.435Z,100090.83
2023-04-23T15:56:17.377Z,100084.52
2023-04-23T15:58:50.205Z,100086.97
2023-04-23T16:01:25.499Z,100085.33
2023-04-23T16:04:08.610Z,100096.34
2023-04-23T16:06:29.378Z,100088.70
2023-04-23T16:09:02.309Z,100086.84
2023-04-23T16:11:34.955Z,100087.53
2023-04-23T16:14:06.884Z,100087.08
2023-04-23T16:16:39.529Z,100089.33
2023-04-23T16:19:11.997Z,100093.83
2023-04-23T16:21:43.733Z,100087.52
2023-04-23T16:24:17.498Z,100084.50
2023-04-23T16:26:49.195Z,100087.26
2023-04-23T16:29:22.819Z,100085.39
2023-04-23T16:31:54.000Z,100089.02
2023-04-23T16:34:25.780Z,100094.55
2023-04-23T16:36:57.670Z,100105.08
2023-04-23T16:39:29.450Z,100098.63
2023-04-23T16:42:02.052Z,100095.89
2023-04-23T16:44:34.561Z,100096.62
2023-04-23T16:47:06.790Z,100089.48
2023-04-23T16:49:38.908Z,100092.96
2023-04-23T16:52:11.167Z,100095.06
2023-04-23T16:54:43.759Z,100087.92
2023-04-23T16:57:16.355Z,100089.34
2023-04-23T16:59:48.053Z,100090.42
2023-04-23T17:02:19.813Z,100093.56
2023-04-23T17:04:51.827Z,100097.03
2023-04-23T17:07:24.181Z,100103.56
2023-04-23T17:09:56.219Z,100100.70
2023-04-23T17:12:28.125Z,100099.69
2023-04-23T17:14:59.675Z,100103.98
2023-04-23T17:17:31.540Z,100104.91
2023-04-23T17:20:04.047Z,100109.73
2023-04-23T17:22:35.959Z,100108.20
2023-04-23T17:25:08.324Z,100110.81
2023-04-23T17:27:40.213Z,100111.86
2023-04-23T17:30:12.414Z,100115.84
2023-04-23T17:32:44.426Z,100115.17
2023-04-23T17:35:16.282Z,100121.85
2023-04-23T17:37:48.236Z,100123.77
2023-04-23T17:40:20.390Z,100123.45
2023-04-23T17:42:52.593Z,100121.57
2023-04-23T17:45:24.187Z,100125.85
2023-04-23T17:47:56.485Z,100124.83
2023-04-23T17:50:28.817Z,100133.06
2023-04-23T17:53:00.437Z,100135.28
2023-04-23T17:55:33.172Z,100134.63
2023-04-23T17:58:09.313Z,100135.48
2023-04-23T18:00:42.395Z,100138.53
2023-04-23T18:03:16.073Z,100140.95
2023-04-23T18:05:59.265Z,100142.98
2023-04-23T18:08:31.388Z,100143.00
2023-04-23T18:11:04.627Z,100147.78
2023-04-23T18:13:37.421Z,100148.48
2023-04-23T18:16:09.088Z,100148.47
2023-04-23T18:18:41.647Z,100146.77
2023-04-23T18:21:16.909Z,100151.22
2023-04-23T18:23:51.335Z,100142.65
2023-04-23T18:26:24.045Z,100148.13
2023-04-23T18:28:55.739Z,100145.73
2023-04-23T18:31:27.375Z,100147.61
2023-04-23T18:34:04.940Z,100141.28
2023-04-23T18:36:38.524Z,100142.31
2023-04-23T18:41:54.868Z,100143.49
2023-04-23T18:44:27.568Z,100142.13
2023-04-23T18:46:59.602Z,100145.70
2023-04-23T18:49:40.674Z,100153.90
2023-04-23T18:52:13.191Z,100151.16
2023-04-23T18:54:44.851Z,100151.12
2023-04-23T18:57:16.911Z,100153.52
2023-04-23T18:59:49.591Z,100151.78
2023-04-23T19:02:34.388Z,100155.14
2023-04-23T19:04:54.921Z,100154.80
2023-04-23T19:07:26.845Z,100152.73
2023-04-23T19:09:58.878Z,100150.48
2023-04-23T19:12:30.688Z,100149.61
2023-04-23T19:15:03.285Z,100148.58
2023-04-23T19:17:36.601Z,100145.34
2023-04-23T19:20:11.336Z,100146.33
2023-04-23T19:22:43.349Z,100149.37
2023-04-23T19:25:14.945Z,100146.15
2023-04-23T19:27:47.352Z,100152.64
2023-04-23T19:30:18.949Z,100152.27
2023-04-23T19:32:51.294Z,100155.48
2023-04-23T19:35:23.460Z,100149.46
2023-04-23T19:37:55.965Z,100145.35
2023-04-23T19:40:27.523Z,100146.20
2023-04-23T19:42:59.372Z,100149.05
2023-04-23T19:45:32.411Z,100144.42
2023-04-23T19:48:05.001Z,100147.27
2023-04-23T19:50:36.704Z,100148.98
2023-04-23T19:53:08.466Z,100143.62
2023-04-23T19:55:40.751Z,100146.84
2023-04-23T19:58:13.240Z,100149.86
2023-04-23T20:00:44.915Z,100146.40
2023-04-23T20:03:16.651Z,100143.44
2023-04-23T20:05:49.877Z,100141.52
2023-04-23T20:08:23.209Z,100137.74
2023-04-23T20:13:25.751Z,100134.63
2023-04-23T20:15:57.560Z,100139.69
2023-04-23T20:18:30.932Z,100135.08
2023-04-23T20:21:02.752Z,100138.27
2023-04-23T20:23:34.868Z,100134.47
2023-04-23T20:26:08.557Z,100135.77
2023-04-23T20:28:40.271Z,100136.42
2023-04-23T20:31:11.981Z,100134.66
2023-04-23T20:33:43.568Z,100135.98
2023-04-23T20:36:16.127Z,100133.88
2023-04-23T20:38:48.047Z,100137.56
2023-04-23T20:41:20.527Z,100135.11
2023-04-23T20:43:52.652Z,100131.64
2023-04-23T20:46:25.206Z,100134.33
2023-04-23T20:48:58.352Z,100134.78
2023-04-23T20:51:30.429Z,100130.97
2023-04-23T20:54:02.337Z,100135.81
2023-04-23T20:56:34.092Z,100136.45
2023-04-23T20:59:06.377Z,100138.42
2023-04-23T21:01:38.694Z,100142.23
2023-04-23T21:04:10.378Z,100134.63
2023-04-23T21:06:43.262Z,100135.08
2023-04-23T21:09:14.965Z,100141.99
2023-04-23T21:11:46.882Z,100143.65
2023-04-23T21:14:18.509Z,100146.48
2023-04-23T21:16:49.981Z,100139.63
2023-04-23T21:19:21.627Z,100145.86
2023-04-23T21:21:53.333Z,100151.40
2023-04-23T21:24:25.049Z,100148.14
2023-04-23T21:26:56.946Z,100144.50
2023-04-23T21:29:29.512Z,100151.55
2023-04-23T21:32:01.042Z,100149.75
2023-04-23T21:34:32.855Z,100143.92
2023-04-23T21:37:04.487Z,100150.62
2023-04-23T21:39:36.220Z,100148.20
2023-04-23T21:42:07.752Z,100145.58
2023-04-23T21:44:40.715Z,100145.17
2023-04-23T21:47:12.455Z,100150.03
2023-04-23T21:49:44.590Z,100145.90
2023-04-23T21:52:17.542Z,100147.89
2023-04-23T21:54:49.189Z,100146.83
2023-04-23T21:57:21.287Z,100145.41
2023-04-23T21:59:52.858Z,100146.03
2023-04-23T22:02:24.636Z,100140.69
2023-04-23T22:04:56.253Z,100142.19
2023-04-23T22:07:29.608Z,100146.93
2023-04-23T22:10:01.700Z,100146.00
2023-04-23T22:12:33.814Z,100140.36
2023-04-23T22:15:07.933Z,100142.01
2023-04-23T22:17:40.832Z,100140.56
2023-04-23T22:22:56.219Z,100139.56
2023-04-23T22:25:27.994Z,100140.51
2023-04-23T22:27:59.835Z,100134.14
2023-04-23T22:30:31.679Z,100132.69
2023-04-23T22:33:03.469Z,100136.66
2023-04-23T22:35:35.118Z,100134.89
2023-04-23T22:38:06.785Z,100133.95
2023-04-23T22:40:38.559Z,100138.31
2023-04-23T22:43:10.226Z,100134.17
2023-04-23T22:45:42.087Z,100131.52
2023-04-23T22:48:13.676Z,100130.06
2023-04-23T22:50:45.598Z,100130.38
2023-04-23T22:53:19.768Z,100131.28
2023-04-23T22:55:52.790Z,100124.42
2023-04-23T22:58:24.462Z,100128.28
2023-04-23T23:00:56.276Z,100123.13
2023-04-23T23:03:28.004Z,100126.13
2023-04-23T23:05:59.946Z,100124.91
2023-04-23T23:08:31.633Z,100127.23
2023-04-23T23:11:04.211Z,100126.27
2023-04-23T23:13:35.887Z,100124.03
2023-04-23T23:16:08.091Z,100127.76
2023-04-23T23:18:40.773Z,100128.73
2023-04-23T23:21:12.287Z,100124.17
2023-04-23T23:23:44.088Z,100120.45
2023-04-23T23:26:15.847Z,100117.73
2023-04-23T23:28:47.473Z,100111.23
2023-04-23T23:31:19.836Z,100115.09
2023-04-23T23:33:51.522Z,100110.81
2023-04-23T23:36:23.146Z,100104.44
2023-04-23T23:38:54.786Z,100104.85
2023-04-23T23:41:26.976Z,100105.27
2023-04-23T23:43:58.564Z,100093.84
2023-04-23T23:46:30.428Z,100096.84
2023-04-23T23:49:02.138Z,100094.67
2023-04-23T23:51:34.816Z,100101.37
2023-04-23T23:54:06.356Z,100091.07
2023-04-23T23:56:38.182Z,100099.83
2023-04-23T23:59:09.728Z,100089.64
